sensor_id;sensor_type;location;lat;lon;timestamp;pressure;altitude;pressure_sealevel;temperature;humidity
18527;BME280;9393;42.158;24.748;2022-07-06T00:00:23;99429.97;;;26.98;44.87
18527;BME280;9393;42.158;24.748;2022-07-06T00:03:26;99429.22;;;27.02;44.60
18527;BME280;9393;42.158;24.748;2022-07-06T00:06:31;99430.72;;;26.93;45.08
18527;BME280;9393;42.158;24.748;2022-07-06T00:09:34;99425.88;;;27.17;44.59
18527;BME280;9393;42.158;24.748;2022-07-06T00:12:38;99421.69;;;26.99;45.30
18527;BME280;9393;42.158;24.748;2022-07-06T00:15:41;99411.34;;;27.08;46.18
18527;BME280;9393;42.158;24.748;2022-07-06T00:18:45;99420.41;;;27.07;46.96
18527;BME280;9393;42.158;24.748;2022-07-06T00:21:49;99412.34;;;26.37;49.72
18527;BME280;9393;42.158;24.748;2022-07-06T00:24:53;99428.28;;;26.32;50.32
18527;BME280;9393;42.158;24.748;2022-07-06T00:27:56;99415.28;;;26.19;50.80
18527;BME280;9393;42.158;24.748;2022-07-06T00:30:59;99412.78;;;25.95;51.59
18527;BME280;9393;42.158;24.748;2022-07-06T00:34:03;99402.66;;;25.64;52.75
18527;BME280;9393;42.158;24.748;2022-07-06T00:37:08;99396.41;;;25.58;52.83
18527;BME280;9393;42.158;24.748;2022-07-06T00:40:11;99393.84;;;25.80;51.89
18527;BME280;9393;42.158;24.748;2022-07-06T00:43:15;99389.09;;;26.21;50.99
18527;BME280;9393;42.158;24.748;2022-07-06T00:46:19;99386.16;;;26.39;50.34
18527;BME280;9393;42.158;24.748;2022-07-06T00:49:22;99382.44;;;26.06;51.41
18527;BME280;9393;42.158;24.748;2022-07-06T00:52:47;99379.91;;;26.55;50.29
18527;BME280;9393;42.158;24.748;2022-07-06T00:55:50;99379.00;;;26.06;51.58
18527;BME280;9393;42.158;24.748;2022-07-06T00:58:54;99367.88;;;26.52;50.29
18527;BME280;9393;42.158;24.748;2022-07-06T01:01:57;99363.13;;;26.59;50.30
18527;BME280;9393;42.158;24.748;2022-07-06T01:05:03;99354.06;;;26.82;49.89
18527;BME280;9393;42.158;24.748;2022-07-06T01:08:08;99356.34;;;26.74;49.98
18527;BME280;9393;42.158;24.748;2022-07-06T01:11:12;99338.31;;;26.64;49.80
18527;BME280;9393;42.158;24.748;2022-07-06T01:14:15;99332.66;;;26.82;49.37
18527;BME280;9393;42.158;24.748;2022-07-06T01:17:20;99332.88;;;27.02;48.81
18527;BME280;9393;42.158;24.748;2022-07-06T01:20:26;99324.84;;;26.81;49.46
18527;BME280;9393;42.158;24.748;2022-07-06T01:23:30;99321.81;;;26.94;48.96
18527;BME280;9393;42.158;24.748;2022-07-06T01:26:33;99316.53;;;27.04;48.72
18527;BME280;9393;42.158;24.748;2022-07-06T01:29:37;99304.09;;;26.88;49.08
18527;BME280;9393;42.158;24.748;2022-07-06T01:32:41;99299.56;;;27.20;48.24
18527;BME280;9393;42.158;24.748;2022-07-06T01:35:46;99293.19;;;27.26;47.79
18527;BME280;9393;42.158;24.748;2022-07-06T01:38:52;99289.91;;;27.19;48.04
18527;BME280;9393;42.158;24.748;2022-07-06T01:41:56;99292.91;;;27.28;47.96
18527;BME280;9393;42.158;24.748;2022-07-06T01:44:59;99287.78;;;27.21;47.85
18527;BME280;9393;42.158;24.748;2022-07-06T01:48:05;99282.53;;;26.99;48.43
18527;BME280;9393;42.158;24.748;2022-07-06T01:51:10;99271.75;;;26.94;48.31
18527;BME280;9393;42.158;24.748;2022-07-06T01:54:16;99276.75;;;27.13;47.60
18527;BME280;9393;42.158;24.748;2022-07-06T01:57:19;99269.25;;;27.15;47.59
18527;BME280;9393;42.158;24.748;2022-07-06T02:00:23;99268.50;;;27.19;47.41
18527;BME280;9393;42.158;24.748;2022-07-06T02:03:27;99270.81;;;26.79;48.87
18527;BME280;9393;42.158;24.748;2022-07-06T02:06:32;99253.38;;;26.76;48.90
18527;BME280;9393;42.158;24.748;2022-07-06T02:09:35;99260.16;;;26.57;49.59
18527;BME280;9393;42.158;24.748;2022-07-06T02:12:39;99258.00;;;26.59;49.64
18527;BME280;9393;42.158;24.748;2022-07-06T02:15:42;99252.75;;;26.42;50.48
18527;BME280;9393;42.158;24.748;2022-07-06T02:18:45;99248.72;;;26.67;49.83
18527;BME280;9393;42.158;24.748;2022-07-06T02:21:50;99250.00;;;26.59;50.40
18527;BME280;9393;42.158;24.748;2022-07-06T02:24:53;99251.41;;;26.40;51.14
18527;BME280;9393;42.158;24.748;2022-07-06T02:27:57;99248.56;;;26.03;52.23
18527;BME280;9393;42.158;24.748;2022-07-06T02:31:00;99254.63;;;26.42;50.89
18527;BME280;9393;42.158;24.748;2022-07-06T02:34:05;99250.50;;;26.56;50.64
18527;BME280;9393;42.158;24.748;2022-07-06T02:37:10;99255.03;;;26.29;51.37
18527;BME280;9393;42.158;24.748;2022-07-06T02:40:13;99257.50;;;26.35;50.89
18527;BME280;9393;42.158;24.748;2022-07-06T02:43:17;99264.47;;;26.63;50.06
18527;BME280;9393;42.158;24.748;2022-07-06T02:46:20;99271.78;;;26.73;49.57
18527;BME280;9393;42.158;24.748;2022-07-06T02:49:25;99276.81;;;26.64;50.65
18527;BME280;9393;42.158;24.748;2022-07-06T02:52:30;99279.16;;;26.34;51.28
18527;BME280;9393;42.158;24.748;2022-07-06T02:55:42;99275.38;;;26.30;51.51
18527;BME280;9393;42.158;24.748;2022-07-06T02:58:45;99269.56;;;26.38;51.40
18527;BME280;9393;42.158;24.748;2022-07-06T03:01:49;99276.63;;;26.49;51.08
18527;BME280;9393;42.158;24.748;2022-07-06T03:04:52;99285.88;;;26.63;51.02
18527;BME280;9393;42.158;24.748;2022-07-06T03:07:57;99281.69;;;26.72;50.44
18527;BME280;9393;42.158;24.748;2022-07-06T03:11:01;99281.94;;;26.92;50.20
18527;BME280;9393;42.158;24.748;2022-07-06T03:14:05;99286.94;;;26.62;51.05
18527;BME280;9393;42.158;24.748;2022-07-06T03:17:12;99288.63;;;26.68;51.13
18527;BME280;9393;42.158;24.748;2022-07-06T03:20:16;99295.00;;;26.89;50.57
18527;BME280;9393;42.158;24.748;2022-07-06T03:23:22;99301.81;;;27.01;50.22
18527;BME280;9393;42.158;24.748;2022-07-06T03:26:26;99293.63;;;27.13;50.14
18527;BME280;9393;42.158;24.748;2022-07-06T03:29:29;99305.31;;;27.34;49.27
18527;BME280;9393;42.158;24.748;2022-07-06T03:32:34;99304.22;;;27.35;49.25
18527;BME280;9393;42.158;24.748;2022-07-06T03:35:40;99313.41;;;27.44;48.83
18527;BME280;9393;42.158;24.748;2022-07-06T03:38:47;99309.88;;;27.38;49.01
18527;BME280;9393;42.158;24.748;2022-07-06T03:41:52;99312.84;;;27.42;48.68
18527;BME280;9393;42.158;24.748;2022-07-06T03:44:56;99305.59;;;27.37;48.90
18527;BME280;9393;42.158;24.748;2022-07-06T03:48:01;99309.06;;;27.70;48.42
18527;BME280;9393;42.158;24.748;2022-07-06T03:51:06;99308.75;;;27.66;49.08
18527;BME280;9393;42.158;24.748;2022-07-06T03:54:11;99321.00;;;27.25;49.24
18527;BME280;9393;42.158;24.748;2022-07-06T03:57:14;99322.56;;;27.90;47.49
18527;BME280;9393;42.158;24.748;2022-07-06T04:00:19;99321.97;;;27.78;48.05
18527;BME280;9393;42.158;24.748;2022-07-06T04:03:30;99319.06;;;27.84;48.05
18527;BME280;9393;42.158;24.748;2022-07-06T04:06:36;99313.50;;;27.54;49.58
18527;BME280;9393;42.158;24.748;2022-07-06T04:09:41;99318.53;;;27.87;49.21
18527;BME280;9393;42.158;24.748;2022-07-06T04:12:45;99314.56;;;27.95;49.90
18527;BME280;9393;42.158;24.748;2022-07-06T04:15:50;99323.09;;;28.34;49.38
18527;BME280;9393;42.158;24.748;2022-07-06T04:18:54;99316.13;;;28.33;49.84
18527;BME280;9393;42.158;24.748;2022-07-06T04:21:58;99319.00;;;27.79;51.52
18527;BME280;9393;42.158;24.748;2022-07-06T04:25:03;99331.00;;;27.35;53.19
18527;BME280;9393;42.158;24.748;2022-07-06T04:28:07;99321.75;;;27.84;52.09
18527;BME280;9393;42.158;24.748;2022-07-06T04:31:11;99330.56;;;28.27;51.61
18527;BME280;9393;42.158;24.748;2022-07-06T04:34:20;99324.88;;;28.80;50.72
18527;BME280;9393;42.158;24.748;2022-07-06T04:37:24;99326.56;;;27.82;53.53
18527;BME280;9393;42.158;24.748;2022-07-06T04:40:29;99323.13;;;28.44;52.14
18527;BME280;9393;42.158;24.748;2022-07-06T04:43:39;99317.41;;;28.25;53.08
18527;BME280;9393;42.158;24.748;2022-07-06T04:46:45;99323.22;;;28.69;51.79
18527;BME280;9393;42.158;24.748;2022-07-06T04:49:49;99330.16;;;28.60;52.03
18527;BME280;9393;42.158;24.748;2022-07-06T04:52:53;99327.03;;;29.03;51.41
18527;BME280;9393;42.158;24.748;2022-07-06T04:55:58;99326.78;;;29.05;50.76
18527;BME280;9393;42.158;24.748;2022-07-06T04:59:04;99327.59;;;28.23;53.26
18527;BME280;9393;42.158;24.748;2022-07-06T05:02:08;99327.34;;;28.25;53.50
18527;BME280;9393;42.158;24.748;2022-07-06T05:05:11;99325.34;;;28.05;54.61
18527;BME280;9393;42.158;24.748;2022-07-06T05:08:16;99323.06;;;28.29;53.58
18527;BME280;9393;42.158;24.748;2022-07-06T05:11:22;99326.09;;;27.95;54.77
18527;BME280;9393;42.158;24.748;2022-07-06T05:14:26;99327.69;;;27.91;55.12
18527;BME280;9393;42.158;24.748;2022-07-06T05:17:31;99332.16;;;28.28;53.82
18527;BME280;9393;42.158;24.748;2022-07-06T05:20:35;99339.50;;;28.47;53.45
18527;BME280;9393;42.158;24.748;2022-07-06T05:23:39;99341.25;;;28.22;54.10
18527;BME280;9393;42.158;24.748;2022-07-06T05:26:44;99348.72;;;28.09;54.18
18527;BME280;9393;42.158;24.748;2022-07-06T05:29:49;99351.63;;;28.65;53.45
18527;BME280;9393;42.158;24.748;2022-07-06T05:32:53;99351.75;;;29.00;52.07
18527;BME280;9393;42.158;24.748;2022-07-06T05:35:56;99354.38;;;28.80;52.38
18527;BME280;9393;42.158;24.748;2022-07-06T05:39:02;99355.78;;;28.31;54.28
18527;BME280;9393;42.158;24.748;2022-07-06T05:42:07;99356.00;;;28.19;54.92
18527;BME280;9393;42.158;24.748;2022-07-06T05:45:12;99363.13;;;28.03;55.38
18527;BME280;9393;42.158;24.748;2022-07-06T05:48:17;99360.84;;;27.80;56.25
18527;BME280;9393;42.158;24.748;2022-07-06T05:51:40;99364.34;;;27.49;57.31
18527;BME280;9393;42.158;24.748;2022-07-06T05:54:43;99369.63;;;27.76;56.69
18527;BME280;9393;42.158;24.748;2022-07-06T05:57:48;99374.28;;;27.90;56.69
18527;BME280;9393;42.158;24.748;2022-07-06T06:00:53;99374.28;;;27.90;56.34
18527;BME280;9393;42.158;24.748;2022-07-06T06:03:57;99383.63;;;28.20;55.59
18527;BME280;9393;42.158;24.748;2022-07-06T06:07:01;99376.66;;;28.81;54.50
18527;BME280;9393;42.158;24.748;2022-07-06T06:10:07;99380.53;;;29.35;52.64
18527;BME280;9393;42.158;24.748;2022-07-06T06:13:12;99379.94;;;29.08;53.13
18527;BME280;9393;42.158;24.748;2022-07-06T06:16:16;99381.63;;;29.44;52.36
18527;BME280;9393;42.158;24.748;2022-07-06T06:19:20;99385.88;;;30.11;50.73
18527;BME280;9393;42.158;24.748;2022-07-06T06:22:24;99378.88;;;30.10;50.39
18527;BME280;9393;42.158;24.748;2022-07-06T06:25:29;99379.88;;;30.34;49.81
18527;BME280;9393;42.158;24.748;2022-07-06T06:28:34;99382.97;;;29.47;51.23
18527;BME280;9393;42.158;24.748;2022-07-06T06:31:38;99385.13;;;29.50;51.09
18527;BME280;9393;42.158;24.748;2022-07-06T06:34:42;99374.59;;;30.04;49.94
18527;BME280;9393;42.158;24.748;2022-07-06T06:37:46;99380.50;;;30.11;49.62
18527;BME280;9393;42.158;24.748;2022-07-06T06:40:49;99385.00;;;30.31;49.73
18527;BME280;9393;42.158;24.748;2022-07-06T06:43:54;99389.94;;;29.93;49.65
18527;BME280;9393;42.158;24.748;2022-07-06T06:47:03;99385.66;;;29.77;49.63
18527;BME280;9393;42.158;24.748;2022-07-06T06:50:07;99381.00;;;30.28;49.04
18527;BME280;9393;42.158;24.748;2022-07-06T06:53:11;99382.56;;;30.39;48.51
18527;BME280;9393;42.158;24.748;2022-07-06T06:56:14;99377.47;;;30.43;47.84
18527;BME280;9393;42.158;24.748;2022-07-06T06:59:20;99386.91;;;30.94;47.18
18527;BME280;9393;42.158;24.748;2022-07-06T07:02:23;99376.22;;;30.84;46.95
18527;BME280;9393;42.158;24.748;2022-07-06T07:05:26;99384.53;;;30.88;46.50
18527;BME280;9393;42.158;24.748;2022-07-06T07:08:30;99382.81;;;30.48;47.06
18527;BME280;9393;42.158;24.748;2022-07-06T07:11:34;99371.22;;;31.12;46.96
18527;BME280;9393;42.158;24.748;2022-07-06T07:14:39;99368.91;;;30.41;47.46
18527;BME280;9393;42.158;24.748;2022-07-06T07:17:42;99374.75;;;30.58;47.08
18527;BME280;9393;42.158;24.748;2022-07-06T07:20:46;99371.09;;;30.03;48.54
18527;BME280;9393;42.158;24.748;2022-07-06T07:23:50;99375.69;;;30.82;46.74
18527;BME280;9393;42.158;24.748;2022-07-06T07:26:53;99374.81;;;30.97;46.33
18527;BME280;9393;42.158;24.748;2022-07-06T07:29:58;99379.22;;;31.27;46.20
18527;BME280;9393;42.158;24.748;2022-07-06T07:33:01;99370.38;;;30.62;46.96
18527;BME280;9393;42.158;24.748;2022-07-06T07:36:05;99369.75;;;30.85;45.91
18527;BME280;9393;42.158;24.748;2022-07-06T07:39:08;99370.06;;;29.94;47.25
18527;BME280;9393;42.158;24.748;2022-07-06T07:42:12;99369.97;;;30.30;47.39
18527;BME280;9393;42.158;24.748;2022-07-06T07:45:20;99375.69;;;30.13;47.91
18527;BME280;9393;42.158;24.748;2022-07-06T07:48:24;99375.97;;;29.36;49.65
18527;BME280;9393;42.158;24.748;2022-07-06T07:51:28;99379.19;;;29.98;48.06
18527;BME280;9393;42.158;24.748;2022-07-06T07:54:31;99368.66;;;30.17;47.73
18527;BME280;9393;42.158;24.748;2022-07-06T07:57:35;99371.66;;;30.00;47.92
18527;BME280;9393;42.158;24.748;2022-07-06T08:00:40;99371.63;;;30.11;48.36
18527;BME280;9393;42.158;24.748;2022-07-06T08:03:43;99363.50;;;30.31;47.35
18527;BME280;9393;42.158;24.748;2022-07-06T08:06:47;99361.88;;;30.35;47.90
18527;BME280;9393;42.158;24.748;2022-07-06T08:09:50;99358.50;;;29.94;48.78
18527;BME280;9393;42.158;24.748;2022-07-06T08:12:54;99370.31;;;30.08;47.98
18527;BME280;9393;42.158;24.748;2022-07-06T08:15:58;99365.69;;;30.19;47.99
18527;BME280;9393;42.158;24.748;2022-07-06T08:19:02;99364.31;;;30.90;47.33
18527;BME280;9393;42.158;24.748;2022-07-06T08:22:11;99359.53;;;30.13;47.74
18527;BME280;9393;42.158;24.748;2022-07-06T08:25:15;99362.50;;;30.06;48.64
18527;BME280;9393;42.158;24.748;2022-07-06T08:28:19;99358.63;;;30.48;47.64
18527;BME280;9393;42.158;24.748;2022-07-06T08:31:24;99353.91;;;30.79;46.97
18527;BME280;9393;42.158;24.748;2022-07-06T08:34:49;99359.63;;;30.62;46.54
18527;BME280;9393;42.158;24.748;2022-07-06T08:37:52;99365.66;;;30.98;46.39
18527;BME280;9393;42.158;24.748;2022-07-06T08:40:56;99356.53;;;31.33;45.54
18527;BME280;9393;42.158;24.748;2022-07-06T08:44:00;99358.41;;;32.42;43.77
18527;BME280;9393;42.158;24.748;2022-07-06T08:47:06;99363.91;;;32.61;44.16
18527;BME280;9393;42.158;24.748;2022-07-06T08:50:15;99362.56;;;32.35;43.50
18527;BME280;9393;42.158;24.748;2022-07-06T08:53:19;99360.19;;;32.04;43.96
18527;BME280;9393;42.158;24.748;2022-07-06T08:56:24;99356.72;;;31.75;45.04
18527;BME280;9393;42.158;24.748;2022-07-06T08:59:28;99359.63;;;31.50;44.68
18527;BME280;9393;42.158;24.748;2022-07-06T09:02:34;99349.66;;;31.17;45.16
18527;BME280;9393;42.158;24.748;2022-07-06T09:05:39;99358.72;;;31.26;45.79
18527;BME280;9393;42.158;24.748;2022-07-06T09:08:44;99353.69;;;31.48;45.92
18527;BME280;9393;42.158;24.748;2022-07-06T09:11:48;99354.97;;;31.27;46.38
18527;BME280;9393;42.158;24.748;2022-07-06T09:14:54;99354.47;;;31.20;46.38
18527;BME280;9393;42.158;24.748;2022-07-06T09:17:59;99362.69;;;30.99;47.04
18527;BME280;9393;42.158;24.748;2022-07-06T09:21:03;99364.44;;;30.70;47.51
18527;BME280;9393;42.158;24.748;2022-07-06T09:24:08;99362.91;;;30.54;48.54
18527;BME280;9393;42.158;24.748;2022-07-06T09:27:16;99366.56;;;30.73;48.17
18527;BME280;9393;42.158;24.748;2022-07-06T09:30:20;99367.56;;;30.87;48.05
18527;BME280;9393;42.158;24.748;2022-07-06T09:33:26;99362.25;;;30.77;48.27
18527;BME280;9393;42.158;24.748;2022-07-06T09:36:40;99357.13;;;30.81;48.34
18527;BME280;9393;42.158;24.748;2022-07-06T09:39:44;99369.81;;;30.75;48.79
18527;BME280;9393;42.158;24.748;2022-07-06T09:42:47;99364.69;;;30.69;48.40
18527;BME280;9393;42.158;24.748;2022-07-06T09:45:51;99346.59;;;30.84;48.10
18527;BME280;9393;42.158;24.748;2022-07-06T09:48:59;99356.53;;;30.89;48.00
18527;BME280;9393;42.158;24.748;2022-07-06T09:52:05;99348.66;;;31.02;47.93
18527;BME280;9393;42.158;24.748;2022-07-06T09:55:14;99344.41;;;30.86;46.69
18527;BME280;9393;42.158;24.748;2022-07-06T09:58:22;99343.28;;;31.36;46.15
18527;BME280;9393;42.158;24.748;2022-07-06T10:01:46;99347.22;;;31.15;47.00
18527;BME280;9393;42.158;24.748;2022-07-06T10:04:51;99338.94;;;31.40;46.06
18527;BME280;9393;42.158;24.748;2022-07-06T10:07:57;99334.00;;;31.81;45.36
18527;BME280;9393;42.158;24.748;2022-07-06T10:11:01;99335.38;;;32.50;43.44
18527;BME280;9393;42.158;24.748;2022-07-06T10:14:06;99323.41;;;32.37;43.79
18527;BME280;9393;42.158;24.748;2022-07-06T10:17:11;99328.84;;;31.85;44.00
18527;BME280;9393;42.158;24.748;2022-07-06T10:20:17;99322.38;;;31.57;44.32
18527;BME280;9393;42.158;24.748;2022-07-06T10:23:21;99323.34;;;32.42;43.02
18527;BME280;9393;42.158;24.748;2022-07-06T10:26:25;99321.81;;;32.79;42.61
18527;BME280;9393;42.158;24.748;2022-07-06T10:29:30;99314.66;;;32.45;42.37
18527;BME280;9393;42.158;24.748;2022-07-06T10:32:34;99308.88;;;33.13;40.61
18527;BME280;9393;42.158;24.748;2022-07-06T10:35:41;99318.56;;;33.79;39.86
18527;BME280;9393;42.158;24.748;2022-07-06T10:38:49;99306.69;;;33.61;39.87
18527;BME280;9393;42.158;24.748;2022-07-06T10:41:52;99309.69;;;33.27;40.20
18527;BME280;9393;42.158;24.748;2022-07-06T10:44:55;99306.00;;;33.69;39.92
18527;BME280;9393;42.158;24.748;2022-07-06T10:48:16;99300.63;;;33.83;39.28
18527;BME280;9393;42.158;24.748;2022-07-06T10:51:24;99293.91;;;34.08;38.70
18527;BME280;9393;42.158;24.748;2022-07-06T10:54:39;99300.84;;;34.41;37.91
18527;BME280;9393;42.158;24.748;2022-07-06T10:57:51;99296.81;;;34.25;38.27
18527;BME280;9393;42.158;24.748;2022-07-06T11:00:55;99303.75;;;35.16;36.45
18527;BME280;9393;42.158;24.748;2022-07-06T11:04:08;99303.88;;;35.42;36.42
18527;BME280;9393;42.158;24.748;2022-07-06T11:07:14;99295.72;;;35.33;34.49
18527;BME280;9393;42.158;24.748;2022-07-06T11:10:18;99292.31;;;35.28;32.77
18527;BME280;9393;42.158;24.748;2022-07-06T11:13:25;99290.06;;;35.52;33.89
18527;BME280;9393;42.158;24.748;2022-07-06T11:16:30;99288.50;;;35.29;34.38
18527;BME280;9393;42.158;24.748;2022-07-06T11:19:36;99282.28;;;35.59;33.72
18527;BME280;9393;42.158;24.748;2022-07-06T11:22:43;99274.75;;;35.56;33.06
18527;BME280;9393;42.158;24.748;2022-07-06T11:25:46;99271.69;;;35.18;33.26
18527;BME280;9393;42.158;24.748;2022-07-06T11:28:51;99270.63;;;35.28;33.57
18527;BME280;9393;42.158;24.748;2022-07-06T11:31:56;99276.03;;;35.81;33.26
18527;BME280;9393;42.158;24.748;2022-07-06T11:35:01;99271.78;;;36.06;32.01
18527;BME280;9393;42.158;24.748;2022-07-06T11:38:26;99268.00;;;35.45;33.03
18527;BME280;9393;42.158;24.748;2022-07-06T11:41:32;99259.41;;;35.43;32.17
18527;BME280;9393;42.158;24.748;2022-07-06T11:44:38;99261.69;;;35.05;33.10
18527;BME280;9393;42.158;24.748;2022-07-06T11:47:41;99259.34;;;34.18;35.15
18527;BME280;9393;42.158;24.748;2022-07-06T11:50:57;99255.78;;;34.45;35.19
18527;BME280;9393;42.158;24.748;2022-07-06T11:54:08;99248.78;;;34.44;35.61
18527;BME280;9393;42.158;24.748;2022-07-06T11:57:12;99246.31;;;34.56;35.46
18527;BME280;9393;42.158;24.748;2022-07-06T12:00:20;99235.66;;;34.10;35.25
18527;BME280;9393;42.158;24.748;2022-07-06T12:03:24;99232.19;;;34.10;34.33
18527;BME280;9393;42.158;24.748;2022-07-06T12:06:28;99237.94;;;34.44;33.89
18527;BME280;9393;42.158;24.748;2022-07-06T12:09:33;99234.13;;;34.45;33.20
18527;BME280;9393;42.158;24.748;2022-07-06T12:12:38;99222.25;;;34.19;34.31
18527;BME280;9393;42.158;24.748;2022-07-06T12:15:42;99227.84;;;34.36;35.12
18527;BME280;9393;42.158;24.748;2022-07-06T12:18:47;99233.97;;;34.00;35.28
18527;BME280;9393;42.158;24.748;2022-07-06T12:21:51;99235.09;;;34.85;33.43
18527;BME280;9393;42.158;24.748;2022-07-06T12:24:59;99231.19;;;35.13;33.58
18527;BME280;9393;42.158;24.748;2022-07-06T12:28:21;99224.00;;;35.17;33.52
18527;BME280;9393;42.158;24.748;2022-07-06T12:31:32;99222.28;;;34.77;34.20
18527;BME280;9393;42.158;24.748;2022-07-06T12:34:36;99215.47;;;34.43;34.73
18527;BME280;9393;42.158;24.748;2022-07-06T12:37:54;99210.22;;;34.25;35.82
18527;BME280;9393;42.158;24.748;2022-07-06T12:41:00;99209.56;;;33.92;35.23
18527;BME280;9393;42.158;24.748;2022-07-06T12:44:06;99214.34;;;34.09;34.82
18527;BME280;9393;42.158;24.748;2022-07-06T12:47:10;99204.94;;;34.20;35.10
18527;BME280;9393;42.158;24.748;2022-07-06T12:50:13;99200.66;;;34.41;35.00
18527;BME280;9393;42.158;24.748;2022-07-06T12:53:24;99200.09;;;34.53;35.42
18527;BME280;9393;42.158;24.748;2022-07-06T12:56:31;99193.25;;;34.33;35.29
18527;BME280;9393;42.158;24.748;2022-07-06T12:59:37;99197.81;;;34.46;34.50
18527;BME280;9393;42.158;24.748;2022-07-06T13:02:44;99186.25;;;34.54;35.38
18527;BME280;9393;42.158;24.748;2022-07-06T13:06:08;99194.81;;;35.14;34.38
18527;BME280;9393;42.158;24.748;2022-07-06T13:09:11;99194.25;;;35.26;35.28
18527;BME280;9393;42.158;24.748;2022-07-06T13:12:18;99182.00;;;35.37;34.66
18527;BME280;9393;42.158;24.748;2022-07-06T13:15:21;99190.75;;;35.65;33.70
18527;BME280;9393;42.158;24.748;2022-07-06T13:18:25;99190.44;;;35.27;34.65
18527;BME280;9393;42.158;24.748;2022-07-06T13:21:28;99189.03;;;34.40;35.87
18527;BME280;9393;42.158;24.748;2022-07-06T13:24:32;99189.75;;;34.32;36.23
18527;BME280;9393;42.158;24.748;2022-07-06T13:27:41;99184.41;;;33.78;37.67
18527;BME280;9393;42.158;24.748;2022-07-06T13:30:45;99181.72;;;33.64;37.12
18527;BME280;9393;42.158;24.748;2022-07-06T13:33:49;99176.31;;;33.64;37.05
18527;BME280;9393;42.158;24.748;2022-07-06T13:36:52;99176.09;;;33.61;38.25
18527;BME280;9393;42.158;24.748;2022-07-06T13:39:56;99187.78;;;33.29;38.67
18527;BME280;9393;42.158;24.748;2022-07-06T13:43:01;99170.75;;;32.82;39.24
18527;BME280;9393;42.158;24.748;2022-07-06T13:46:05;99152.41;;;32.66;39.90
18527;BME280;9393;42.158;24.748;2022-07-06T13:49:08;99155.66;;;32.81;39.33
18527;BME280;9393;42.158;24.748;2022-07-06T13:52:12;99153.63;;;32.73;38.56
18527;BME280;9393;42.158;24.748;2022-07-06T13:55:15;99155.13;;;32.47;39.19
18527;BME280;9393;42.158;24.748;2022-07-06T13:58:20;99161.03;;;32.68;39.18
18527;BME280;9393;42.158;24.748;2022-07-06T14:01:24;99159.47;;;32.94;38.12
18527;BME280;9393;42.158;24.748;2022-07-06T14:04:31;99156.84;;;32.57;38.34
18527;BME280;9393;42.158;24.748;2022-07-06T14:07:35;99165.16;;;33.25;37.43
18527;BME280;9393;42.158;24.748;2022-07-06T14:10:38;99162.44;;;33.93;36.62
18527;BME280;9393;42.158;24.748;2022-07-06T14:13:43;99162.53;;;34.01;36.66
18527;BME280;9393;42.158;24.748;2022-07-06T14:16:47;99163.06;;;33.49;36.41
18527;BME280;9393;42.158;24.748;2022-07-06T14:19:50;99165.25;;;34.01;35.34
18527;BME280;9393;42.158;24.748;2022-07-06T14:22:54;99166.63;;;34.26;34.16
18527;BME280;9393;42.158;24.748;2022-07-06T14:25:57;99159.28;;;34.49;34.04
18527;BME280;9393;42.158;24.748;2022-07-06T14:29:02;99157.06;;;34.95;33.98
18527;BME280;9393;42.158;24.748;2022-07-06T14:32:06;99157.09;;;35.26;33.97
18527;BME280;9393;42.158;24.748;2022-07-06T14:35:10;99152.09;;;34.89;35.03
18527;BME280;9393;42.158;24.748;2022-07-06T14:38:14;99145.19;;;34.83;34.58
18527;BME280;9393;42.158;24.748;2022-07-06T14:41:17;99147.03;;;34.96;33.68
18527;BME280;9393;42.158;24.748;2022-07-06T14:44:22;99159.47;;;35.28;33.67
18527;BME280;9393;42.158;24.748;2022-07-06T14:47:25;99151.69;;;35.74;33.50
18527;BME280;9393;42.158;24.748;2022-07-06T14:50:29;99147.13;;;35.44;34.24
18527;BME280;9393;42.158;24.748;2022-07-06T14:53:32;99146.13;;;35.40;34.45
18527;BME280;9393;42.158;24.748;2022-07-06T14:56:36;99147.06;;;35.35;34.49
18527;BME280;9393;42.158;24.748;2022-07-06T14:59:41;99146.78;;;35.37;34.51
18527;BME280;9393;42.158;24.748;2022-07-06T15:02:44;99139.03;;;34.91;34.69
18527;BME280;9393;42.158;24.748;2022-07-06T15:05:47;99139.09;;;34.99;35.54
18527;BME280;9393;42.158;24.748;2022-07-06T15:08:51;99131.97;;;34.15;36.12
18527;BME280;9393;42.158;24.748;2022-07-06T15:11:54;99132.19;;;33.91;36.70
18527;BME280;9393;42.158;24.748;2022-07-06T15:14:59;99134.53;;;33.70;36.73
18527;BME280;9393;42.158;24.748;2022-07-06T15:18:03;99134.34;;;32.80;38.49
18527;BME280;9393;42.158;24.748;2022-07-06T15:21:07;99134.31;;;32.66;39.20
18527;BME280;9393;42.158;24.748;2022-07-06T15:24:11;99146.22;;;32.46;40.14
18527;BME280;9393;42.158;24.748;2022-07-06T15:27:15;99147.50;;;32.17;40.65
18527;BME280;9393;42.158;24.748;2022-07-06T15:30:19;99143.25;;;32.11;40.87
18527;BME280;9393;42.158;24.748;2022-07-06T15:33:31;99148.06;;;32.14;40.63
18527;BME280;9393;42.158;24.748;2022-07-06T15:36:35;99144.91;;;31.88;41.14
18527;BME280;9393;42.158;24.748;2022-07-06T15:39:38;99157.66;;;32.01;41.18
18527;BME280;9393;42.158;24.748;2022-07-06T15:42:42;99147.59;;;31.88;41.25
18527;BME280;9393;42.158;24.748;2022-07-06T15:45:46;99142.50;;;31.63;41.39
18527;BME280;9393;42.158;24.748;2022-07-06T15:48:50;99140.63;;;31.39;41.89
18527;BME280;9393;42.158;24.748;2022-07-06T15:51:54;99142.03;;;31.32;42.74
18527;BME280;9393;42.158;24.748;2022-07-06T15:54:57;99150.97;;;31.27;42.82
18527;BME280;9393;42.158;24.748;2022-07-06T15:58:00;99151.78;;;31.28;43.48
18527;BME280;9393;42.158;24.748;2022-07-06T16:01:05;99154.91;;;31.40;43.30
18527;BME280;9393;42.158;24.748;2022-07-06T16:04:10;99167.47;;;31.21;44.04
18527;BME280;9393;42.158;24.748;2022-07-06T16:07:14;99188.22;;;30.91;44.18
18527;BME280;9393;42.158;24.748;2022-07-06T16:10:37;99187.59;;;31.04;44.87
18527;BME280;9393;42.158;24.748;2022-07-06T16:13:41;99214.00;;;31.02;45.97
18527;BME280;9393;42.158;24.748;2022-07-06T16:16:46;99210.84;;;30.56;50.95
18527;BME280;9393;42.158;24.748;2022-07-06T16:19:49;99220.94;;;29.56;53.49